createdAt,value
2022-08-28T00:00:01.161Z,90.2
2022-08-28T00:01:00.316Z,90.6
2022-08-28T00:02:00.480Z,90.9
2022-08-28T00:03:00.757Z,90.7
2022-08-28T00:04:00.789Z,90.7
2022-08-28T00:05:01.007Z,90.9
2022-08-28T00:06:01.104Z,91
2022-08-28T00:07:00.254Z,91.1
2022-08-28T00:08:00.460Z,91.2
2022-08-28T00:09:00.563Z,90.7
2022-08-28T00:10:00.705Z,90.1
2022-08-28T00:11:00.857Z,89.9
2022-08-28T00:12:00.989Z,90.5
2022-08-28T00:13:01.180Z,90.5
2022-08-28T00:14:00.298Z,90.1
2022-08-28T00:15:00.453Z,90.1
2022-08-28T00:16:00.659Z,90.6
2022-08-28T00:17:00.737Z,90.8
2022-08-28T00:18:00.936Z,91
2022-08-28T00:19:01.043Z,90.4
2022-08-28T00:20:01.206Z,90.7
2022-08-28T00:21:00.355Z,90.9
2022-08-28T00:22:00.538Z,90.9
2022-08-28T00:23:00.652Z,90.6
2022-08-28T00:24:00.798Z,90
2022-08-28T00:25:00.955Z,90.2
2022-08-28T00:26:01.094Z,90.6
2022-08-28T00:27:01.284Z,90.5
2022-08-28T00:28:00.397Z,89.9
2022-08-28T00:29:00.560Z,89.4
2022-08-28T00:30:00.716Z,89.2
2022-08-28T00:31:00.889Z,89.2
2022-08-28T00:32:01.040Z,89.2
2022-08-28T00:33:01.168Z,89
2022-08-28T00:34:00.314Z,88.9
2022-08-28T00:35:00.464Z,88.9
2022-08-28T00:36:00.611Z,88.8
2022-08-28T00:37:00.800Z,89.1
2022-08-28T00:38:00.909Z,89.3
2022-08-28T00:39:01.065Z,88.6
2022-08-28T00:40:01.291Z,88.4
2022-08-28T00:41:00.393Z,88.8
2022-08-28T00:42:00.550Z,88.7
2022-08-28T00:43:00.675Z,88.4
2022-08-28T00:44:00.837Z,88.4
2022-08-28T00:45:00.976Z,88.4
2022-08-28T00:46:01.161Z,88.1
2022-08-28T00:47:00.323Z,88.1
2022-08-28T00:48:00.432Z,88
2022-08-28T00:49:00.591Z,88.4
2022-08-28T00:50:00.737Z,88.9
2022-08-28T00:51:00.994Z,88.7
2022-08-28T00:52:01.057Z,89
2022-08-28T00:53:01.222Z,88.3
2022-08-28T00:54:03.110Z,88.4
2022-08-28T00:55:00.523Z,88.2
2022-08-28T00:56:00.680Z,88
2022-08-28T00:57:00.847Z,88.2
2022-08-28T00:58:00.957Z,87.9
2022-08-28T00:59:01.128Z,87.8
2022-08-28T01:00:00.280Z,87.8
2022-08-28T01:01:00.437Z,87.8
2022-08-28T01:02:00.669Z,87.9
2022-08-28T01:03:00.868Z,87.9
2022-08-28T01:04:00.886Z,87.8
2022-08-28T01:05:01.032Z,87.9
2022-08-28T01:06:01.190Z,88
2022-08-28T01:07:00.361Z,87.6
2022-08-28T01:08:00.491Z,87.6
2022-08-28T01:09:00.636Z,87.8
2022-08-28T01:10:00.784Z,87.9
2022-08-28T01:11:00.935Z,88
2022-08-28T01:12:01.126Z,88
2022-08-28T01:13:01.249Z,88.1
2022-08-28T01:14:01.869Z,88
2022-08-28T01:15:00.551Z,88
2022-08-28T01:16:00.748Z,88.2
2022-08-28T01:17:00.874Z,88.3
2022-08-28T01:18:12.192Z,88.5
2022-08-28T01:19:01.136Z,88.4
2022-08-28T01:20:00.300Z,88
2022-08-28T01:21:00.443Z,88.1
2022-08-28T01:22:00.627Z,88.3
2022-08-28T01:23:00.770Z,88.4
2022-08-28T01:24:00.898Z,88.4
2022-08-28T01:25:01.046Z,88.7
2022-08-28T01:26:01.366Z,88.7
2022-08-28T01:27:00.389Z,88.8
2022-08-28T01:28:00.504Z,88.2
2022-08-28T01:29:00.665Z,88.2
2022-08-28T01:30:00.810Z,88.5
2022-08-28T01:31:01.002Z,88.5
2022-08-28T01:32:01.140Z,88
2022-08-28T01:33:00.252Z,88.1
2022-08-28T01:34:00.405Z,88
2022-08-28T01:35:00.554Z,88.9
2022-08-28T01:36:00.706Z,87.9
2022-08-28T01:37:03.628Z,88.9
2022-08-28T01:38:01.003Z,89.6
2022-08-28T01:39:01.153Z,89.9
2022-08-28T01:40:00.442Z,89.6
2022-08-28T01:41:00.460Z,89.8
2022-08-28T01:42:00.654Z,90.1
2022-08-28T01:43:00.772Z,89.4
2022-08-28T01:44:00.926Z,88.9
2022-08-28T01:45:01.071Z,88
2022-08-28T01:46:01.316Z,88.1
2022-08-28T01:47:00.414Z,88.7
2022-08-28T01:48:00.530Z,88.3
2022-08-28T01:49:00.735Z,88.9
2022-08-28T01:50:00.833Z,88.6
2022-08-28T01:51:00.970Z,89.1
2022-08-28T01:52:01.160Z,88.7
2022-08-28T01:53:00.277Z,88.4
2022-08-28T01:54:00.428Z,87.7
2022-08-28T01:55:00.568Z,87.9
2022-08-28T01:56:00.735Z,87.7
2022-08-28T01:57:00.902Z,86.9
2022-08-28T01:58:01.025Z,87
2022-08-28T01:59:01.176Z,86.5
2022-08-28T02:00:00.336Z,86.6
2022-08-28T02:01:00.483Z,86.8
2022-08-28T02:02:00.705Z,86.9
2022-08-28T02:03:00.811Z,86.7
2022-08-28T02:04:00.943Z,86.5
2022-08-28T02:05:01.075Z,86.4
2022-08-28T02:06:01.224Z,86.4
2022-08-28T02:07:00.387Z,86.4
2022-08-28T02:08:00.555Z,87.2
2022-08-28T02:09:00.679Z,87.5
2022-08-28T02:10:00.828Z,87.7
2022-08-28T02:11:00.974Z,87.9
2022-08-28T02:12:01.129Z,87.6
2022-08-28T02:13:00.310Z,86.8
2022-08-28T02:14:00.433Z,87
2022-08-28T02:15:00.585Z,86.3
2022-08-28T02:16:00.807Z,86.3
2022-08-28T02:17:00.886Z,86.3
2022-08-28T02:18:01.061Z,86.5
2022-08-28T02:19:01.214Z,86.7
2022-08-28T02:20:00.341Z,86.5
2022-08-28T02:21:00.490Z,86.2
2022-08-28T02:22:00.638Z,86.2
2022-08-28T02:23:00.787Z,86.4
2022-08-28T02:24:00.960Z,86.4
2022-08-28T02:25:01.120Z,86
2022-08-28T02:26:01.234Z,86.2
2022-08-28T02:27:00.393Z,86.3
2022-08-28T02:28:00.536Z,86.2
2022-08-28T02:29:00.684Z,86.2
2022-08-28T02:30:00.868Z,86
2022-08-28T02:31:01.107Z,86.3
2022-08-28T02:32:01.136Z,86.3
2022-08-28T02:33:00.289Z,86.1
2022-08-28T02:34:00.440Z,86.3
2022-08-28T02:35:00.627Z,86.4
2022-08-28T02:36:00.737Z,86.4
2022-08-28T02:37:00.893Z,86.6
2022-08-28T02:38:01.046Z,86.7
2022-08-28T02:39:01.189Z,86.6
2022-08-28T02:40:00.425Z,86.7
2022-08-28T02:41:00.515Z,86.7
2022-08-28T02:42:00.646Z,86.8
2022-08-28T02:43:00.794Z,86.6
2022-08-28T02:44:00.944Z,86.7
2022-08-28T02:45:01.126Z,86.9
2022-08-28T02:46:01.293Z,87.2
2022-08-28T02:47:00.385Z,87.1
2022-08-28T02:48:00.539Z,87.1
2022-08-28T02:49:00.684Z,86.9
2022-08-28T02:50:00.857Z,86.9
2022-08-28T02:51:01.000Z,86.8
2022-08-28T02:52:01.137Z,86.5
2022-08-28T02:53:00.306Z,86.6
2022-08-28T02:54:00.444Z,86.5
2022-08-28T02:55:00.627Z,86.8
2022-08-28T02:56:00.749Z,87.2
2022-08-28T02:57:00.909Z,86.7
2022-08-28T02:58:01.059Z,86.9
2022-08-28T02:59:01.202Z,86.7
2022-08-28T03:00:00.378Z,86.9
2022-08-28T03:01:00.549Z,87.1
2022-08-28T03:02:00.662Z,87.5
2022-08-28T03:03:00.882Z,86.7
2022-08-28T03:04:00.952Z,87
2022-08-28T03:05:01.138Z,87.1
2022-08-28T03:07:00.353Z,86.9
2022-08-28T03:08:00.506Z,87.1
2022-08-28T03:09:00.675Z,88.2
2022-08-28T03:10:00.840Z,86.7
2022-08-28T03:11:00.958Z,86.4
2022-08-28T03:12:01.106Z,86.6
2022-08-28T03:13:00.267Z,86.6
2022-08-28T03:14:00.419Z,86.6
2022-08-28T03:15:00.602Z,86.6
2022-08-28T03:16:00.719Z,86.4
2022-08-28T03:17:00.930Z,86.5
2022-08-28T03:18:01.032Z,87.1
2022-08-28T03:19:01.184Z,86.7
2022-08-28T03:20:00.362Z,86.3
2022-08-28T03:21:00.519Z,86.4
2022-08-28T03:22:00.656Z,86.3
2022-08-28T03:23:00.787Z,86.5
2022-08-28T03:24:00.964Z,86.7
2022-08-28T03:25:01.113Z,87.3
2022-08-28T03:26:00.294Z,87
2022-08-28T03:27:00.410Z,86.4
2022-08-28T03:28:00.579Z,86.2
2022-08-28T03:29:00.732Z,86.4
2022-08-28T03:30:00.875Z,86.5
2022-08-28T03:31:01.154Z,86.3
2022-08-28T03:32:01.200Z,86.4
2022-08-28T03:33:00.328Z,86.4
2022-08-28T03:34:00.480Z,86.5
2022-08-28T03:35:00.639Z,86.9
2022-08-28T03:36:00.814Z,87.1
2022-08-28T03:37:00.935Z,86.7
2022-08-28T03:38:01.088Z,86.9
2022-08-28T03:39:01.234Z,87.6
2022-08-28T03:40:00.483Z,87.5
2022-08-28T03:41:00.558Z,87.8
2022-08-28T03:42:00.715Z,87.4
2022-08-28T03:43:00.836Z,86.9
2022-08-28T03:44:00.993Z,86.7
2022-08-28T03:45:01.146Z,86.7
2022-08-28T03:46:00.368Z,86.6
2022-08-28T03:47:00.479Z,86.7
2022-08-28T03:48:00.639Z,86.7
2022-08-28T03:49:00.757Z,87.3
2022-08-28T03:50:00.907Z,86.6
2022-08-28T03:51:01.069Z,86.3
2022-08-28T03:52:01.225Z,85.8
2022-08-28T03:53:00.406Z,85.6
2022-08-28T03:54:00.522Z,85.8
2022-08-28T03:55:00.672Z,85.6
2022-08-28T03:56:00.823Z,85.5
2022-08-28T03:57:00.967Z,85.5
2022-08-28T03:58:01.155Z,85.9
2022-08-28T03:59:00.262Z,85.7
2022-08-28T04:00:00.426Z,85.7
2022-08-28T04:01:00.605Z,86
2022-08-28T04:02:00.722Z,85.7
2022-08-28T04:03:00.953Z,86
2022-08-28T04:04:01.021Z,85.9
2022-08-28T04:05:01.197Z,85.4
2022-08-28T04:06:00.330Z,85.4
2022-08-28T04:07:00.476Z,85.6
2022-08-28T04:08:00.633Z,85.6
2022-08-28T04:09:00.776Z,85.7
2022-08-28T04:10:00.955Z,85.6
2022-08-28T04:11:01.085Z,85.5
2022-08-28T04:12:01.265Z,85.7
2022-08-28T04:13:00.381Z,85.4
2022-08-28T04:14:00.535Z,85.5
2022-08-28T04:15:00.710Z,85.6
2022-08-28T04:16:00.831Z,85.5
2022-08-28T04:17:01.722Z,85.4
2022-08-28T04:18:01.161Z,86
2022-08-28T04:19:00.302Z,85.8
2022-08-28T04:20:00.441Z,85.7
2022-08-28T04:21:00.593Z,86.3
2022-08-28T04:22:00.744Z,85.8
2022-08-28T04:23:00.921Z,86
2022-08-28T04:24:01.039Z,85.4
2022-08-28T04:25:01.221Z,85.8
2022-08-28T04:26:00.358Z,85.2
2022-08-28T04:27:00.492Z,85.4
2022-08-28T04:28:00.645Z,85.5
2022-08-28T04:29:00.793Z,85.6
2022-08-28T04:30:00.971Z,85.3
2022-08-28T04:31:01.097Z,85.5
2022-08-28T04:32:01.332Z,85.6
2022-08-28T04:33:00.398Z,86.4
2022-08-28T04:34:00.553Z,86.6
2022-08-28T04:35:00.733Z,86.7
2022-08-28T04:36:00.891Z,86.5
2022-08-28T04:37:01.022Z,86.1
2022-08-28T04:38:02.520Z,85.6
2022-08-28T04:39:00.317Z,86.4
2022-08-28T04:40:00.598Z,87.2
2022-08-28T04:41:00.633Z,87
2022-08-28T04:42:00.761Z,87.5
2022-08-28T04:43:00.916Z,86.4
2022-08-28T04:44:01.077Z,86.9
2022-08-28T04:45:01.269Z,87.3
2022-08-28T04:46:00.400Z,86.3
2022-08-28T04:47:00.526Z,87.2
2022-08-28T04:48:00.687Z,87.8
2022-08-28T04:49:00.830Z,87.3
2022-08-28T04:50:01.009Z,86.7
2022-08-28T04:51:01.167Z,85.6
2022-08-28T04:52:00.278Z,85.9
2022-08-28T04:53:00.441Z,86.3
2022-08-28T04:54:00.590Z,87.3
2022-08-28T04:55:00.736Z,87.1
2022-08-28T04:56:00.917Z,86.9
2022-08-28T04:57:01.022Z,86.2
2022-08-28T04:58:01.188Z,87.1
2022-08-28T04:59:00.338Z,85.5
2022-08-28T05:00:00.486Z,85.5
2022-08-28T05:01:00.693Z,85.3
2022-08-28T05:02:00.840Z,85.5
2022-08-28T05:03:00.932Z,84.8
2022-08-28T05:04:01.082Z,85.4
2022-08-28T05:05:01.244Z,86.4
2022-08-28T05:06:00.428Z,86.7
2022-08-28T05:07:00.551Z,85.8
2022-08-28T05:08:00.698Z,86.9
2022-08-28T05:09:00.842Z,87.6
2022-08-28T05:10:00.991Z,87.7
2022-08-28T05:11:01.165Z,87.4
2022-08-28T05:12:00.291Z,87.2
2022-08-28T05:13:00.432Z,87.1
2022-08-28T05:14:00.584Z,85.5
2022-08-28T05:15:00.727Z,84.3
2022-08-28T05:16:00.956Z,85.5
2022-08-28T05:17:01.039Z,86.6
2022-08-28T05:18:01.187Z,86.9
2022-08-28T05:19:00.380Z,85.9
2022-08-28T05:20:00.489Z,86.8
2022-08-28T05:21:00.660Z,85
2022-08-28T05:22:00.807Z,84.6
2022-08-28T05:23:00.939Z,84
2022-08-28T05:24:01.095Z,84.3
2022-08-28T05:25:01.235Z,83.8
2022-08-28T05:26:00.386Z,84
2022-08-28T05:27:00.571Z,84.1
2022-08-28T05:28:00.713Z,83.9
2022-08-28T05:29:00.841Z,84.7
2022-08-28T05:30:02.071Z,85
2022-08-28T05:31:01.154Z,84.3
2022-08-28T05:32:00.392Z,84.2
2022-08-28T05:33:00.473Z,84.7
2022-08-28T05:34:00.602Z,85.6
2022-08-28T05:35:00.762Z,86.1
2022-08-28T05:36:00.910Z,86.1
2022-08-28T05:37:01.093Z,86.5
2022-08-28T05:38:01.236Z,86.3
2022-08-28T05:39:00.367Z,86.4
2022-08-28T05:40:00.580Z,86.1
2022-08-28T05:41:00.672Z,86.3
2022-08-28T05:42:00.832Z,85.6
2022-08-28T05:43:00.963Z,85.9
2022-08-28T05:44:01.130Z,86.4
2022-08-28T05:45:00.265Z,87
2022-08-28T05:46:00.469Z,84.8
2022-08-28T05:47:00.588Z,84.4
2022-08-28T05:48:00.731Z,85.7
2022-08-28T05:49:00.871Z,85
2022-08-28T05:50:01.017Z,83.9
2022-08-28T05:51:01.172Z,84.2
2022-08-28T05:52:00.329Z,84.9
2022-08-28T05:53:00.484Z,84.3
2022-08-28T05:54:00.620Z,85.4
2022-08-28T05:55:00.765Z,85.7
2022-08-28T05:56:00.919Z,85.9
2022-08-28T05:57:01.068Z,84.2
2022-08-28T05:58:01.244Z,84.1
2022-08-28T05:59:00.374Z,84.4
2022-08-28T06:00:00.527Z,84.2
2022-08-28T06:01:00.679Z,84.5
2022-08-28T06:02:04.145Z,83.8
2022-08-28T06:03:01.002Z,84.2
2022-08-28T06:04:01.241Z,84
2022-08-28T06:05:00.274Z,83.6
2022-08-28T06:06:00.429Z,84.6
2022-08-28T06:07:00.581Z,84.8
2022-08-28T06:08:00.745Z,85
2022-08-28T06:09:00.872Z,85.2
2022-08-28T06:10:01.019Z,83.7
2022-08-28T06:11:01.175Z,83.2
2022-08-28T06:12:00.340Z,83.2
2022-08-28T06:13:00.489Z,83
2022-08-28T06:14:00.661Z,83.2
2022-08-28T06:15:00.783Z,83.1
2022-08-28T06:16:00.977Z,83.7
2022-08-28T06:17:01.084Z,83.4
2022-08-28T06:18:01.236Z,83.4
2022-08-28T06:19:00.691Z,83.6
2022-08-28T06:20:00.534Z,83.8
2022-08-28T06:21:00.684Z,83.8
2022-08-28T06:22:00.840Z,83.8
2022-08-28T06:23:00.988Z,83.1
2022-08-28T06:24:01.164Z,83.2
2022-08-28T06:25:00.292Z,83
2022-08-28T06:26:00.441Z,82.9
2022-08-28T06:27:00.595Z,83.3
2022-08-28T06:28:00.747Z,83.4
2022-08-28T06:29:00.906Z,83.4
2022-08-28T06:30:01.057Z,83.6
2022-08-28T06:31:18.573Z,83.5
2022-08-28T06:32:00.429Z,83.4
2022-08-28T06:33:00.587Z,83.8
2022-08-28T06:34:00.660Z,83.4
2022-08-28T06:35:00.813Z,83.4
2022-08-28T06:36:00.944Z,83.4
2022-08-28T06:37:01.090Z,83.5
2022-08-28T06:38:01.249Z,83.7
2022-08-28T06:39:00.398Z,83.4
2022-08-28T06:40:00.621Z,83.5
2022-08-28T06:41:00.698Z,84
2022-08-28T06:42:00.839Z,83.8
2022-08-28T06:43:00.990Z,83.8
2022-08-28T06:44:01.141Z,84.3
2022-08-28T06:45:00.317Z,83.4
2022-08-28T06:46:00.505Z,83.6
2022-08-28T06:47:00.596Z,83.4
2022-08-28T06:48:00.749Z,83.4
2022-08-28T06:49:00.904Z,82.9
2022-08-28T06:50:01.065Z,82.6
2022-08-28T06:51:01.229Z,82.8
2022-08-28T06:52:00.345Z,82.9
2022-08-28T06:53:00.496Z,83
2022-08-28T06:54:00.651Z,83
2022-08-28T06:55:00.812Z,83.6
2022-08-28T06:56:00.967Z,83.9
2022-08-28T06:57:01.102Z,83.5
2022-08-28T06:58:01.251Z,83.5
2022-08-28T06:59:00.401Z,83.7
2022-08-28T07:00:00.558Z,83.3
2022-08-28T07:01:02.984Z,83.2
2022-08-28T07:02:01.073Z,83.2
2022-08-28T07:03:01.067Z,83.1
2022-08-28T07:04:01.170Z,83.2
2022-08-28T07:05:00.328Z,83.3
2022-08-28T07:06:00.475Z,83.4
2022-08-28T07:07:00.666Z,83.2
2022-08-28T07:08:00.779Z,83.8
2022-08-28T07:09:00.931Z,84
2022-08-28T07:10:01.080Z,83.3
2022-08-28T07:11:01.223Z,83.4
2022-08-28T07:12:00.397Z,83.2
2022-08-28T07:13:00.530Z,83.3
2022-08-28T07:14:00.673Z,83.4
2022-08-28T07:15:00.836Z,83.4
2022-08-28T07:16:01.050Z,83.9
2022-08-28T07:17:01.147Z,83.7
2022-08-28T07:18:00.281Z,82.8
2022-08-28T07:19:00.436Z,83.2
2022-08-28T07:20:00.585Z,83.3
2022-08-28T07:21:00.734Z,83
2022-08-28T07:22:00.897Z,82.8
2022-08-28T07:23:01.059Z,83.4
2022-08-28T07:24:01.188Z,83.5
2022-08-28T07:25:00.336Z,83.6
2022-08-28T07:26:00.482Z,83.2
2022-08-28T07:27:00.625Z,82.9
2022-08-28T07:28:00.811Z,83
2022-08-28T07:29:10.714Z,82.8
2022-08-28T07:30:01.120Z,83
2022-08-28T07:31:01.305Z,82.8
2022-08-28T07:32:00.415Z,83.8
2022-08-28T07:33:00.547Z,84
2022-08-28T07:34:00.702Z,83.2
2022-08-28T07:35:00.885Z,82.8
2022-08-28T07:36:01.069Z,82.8
2022-08-28T07:37:01.184Z,83
2022-08-28T07:38:00.336Z,83.1
2022-08-28T07:39:00.471Z,84.6
2022-08-28T07:40:00.701Z,84.2
2022-08-28T07:41:00.769Z,83.5
2022-08-28T07:42:00.918Z,83.5
2022-08-28T07:43:01.068Z,83.8
2022-08-28T07:44:01.226Z,84.1
2022-08-28T07:45:00.387Z,84
2022-08-28T07:46:00.593Z,83.8
2022-08-28T07:47:00.686Z,83.9
2022-08-28T07:48:00.835Z,82.9
2022-08-28T07:49:00.980Z,82.9
2022-08-28T07:50:01.156Z,83.4
2022-08-28T07:51:00.283Z,82.7
2022-08-28T07:52:00.436Z,83.2
2022-08-28T07:53:00.590Z,82.6
2022-08-28T07:54:00.736Z,83.3
2022-08-28T07:55:00.904Z,83.9
2022-08-28T07:56:01.041Z,84.1
2022-08-28T07:57:01.212Z,82.5
2022-08-28T07:58:00.345Z,83.6
2022-08-28T07:59:00.505Z,82.1
2022-08-28T08:00:00.648Z,82.1
2022-08-28T08:01:00.797Z,81.4
2022-08-28T08:02:00.967Z,81.8
2022-08-28T08:03:01.130Z,82.4
2022-08-28T08:04:01.651Z,82.7
2022-08-28T08:05:00.413Z,82.9
2022-08-28T08:06:00.571Z,83.4
2022-08-28T08:07:00.746Z,83.5
2022-08-28T08:08:00.910Z,81.7
2022-08-28T08:09:01.017Z,81.2
2022-08-28T08:10:01.170Z,80.6
2022-08-28T08:11:00.315Z,80.9
2022-08-28T08:12:00.497Z,80.8
2022-08-28T08:13:00.635Z,81.5
2022-08-28T08:14:00.773Z,80.9
2022-08-28T08:15:00.927Z,81.1
2022-08-28T08:16:01.167Z,81.4
2022-08-28T08:17:01.243Z,80.7
2022-08-28T08:18:00.388Z,81
2022-08-28T08:19:00.532Z,80.6
2022-08-28T08:20:00.680Z,81.4
2022-08-28T08:21:00.832Z,82.6
2022-08-28T08:22:01.003Z,81.1
2022-08-28T08:23:01.139Z,82.1
2022-08-28T08:24:00.297Z,80.8
2022-08-28T08:25:00.444Z,81
2022-08-28T08:26:00.610Z,80.8
2022-08-28T08:27:01.079Z,80.8
2022-08-28T08:28:00.912Z,81.7
2022-08-28T08:29:01.050Z,82.7
2022-08-28T08:30:01.206Z,82
2022-08-28T08:31:00.412Z,81.4
2022-08-28T08:32:00.511Z,80.2
2022-08-28T08:33:00.659Z,80.7
2022-08-28T08:34:00.813Z,81.5
2022-08-28T08:35:00.960Z,80.9
2022-08-28T08:36:01.114Z,80.2
2022-08-28T08:37:00.290Z,80.1
2022-08-28T08:38:02.861Z,80
2022-08-28T08:39:00.732Z,80.7
2022-08-28T08:40:00.865Z,79.7
2022-08-28T08:41:00.876Z,79.1
2022-08-28T08:42:01.047Z,79.9
2022-08-28T08:43:01.165Z,80
2022-08-28T08:44:00.338Z,80.5
2022-08-28T08:45:00.462Z,80.9
2022-08-28T08:46:00.636Z,79.8
2022-08-28T08:47:00.791Z,79.9
2022-08-28T08:48:00.924Z,80.9
2022-08-28T08:49:01.091Z,81.6
2022-08-28T08:50:01.242Z,81.3
2022-08-28T08:51:00.400Z,81.2
2022-08-28T08:52:00.575Z,81.8
2022-08-28T08:53:00.720Z,81.1
2022-08-28T08:54:00.839Z,81.1
2022-08-28T08:55:00.987Z,80.9
2022-08-28T08:56:01.166Z,80.8
2022-08-28T08:57:00.295Z,81.8
2022-08-28T08:58:00.438Z,81.2
2022-08-28T08:59:00.611Z,81.2
2022-08-28T09:00:00.745Z,79.8
2022-08-28T09:01:00.989Z,79
2022-08-28T09:02:01.058Z,79.2
2022-08-28T09:03:01.277Z,79.5
2022-08-28T09:04:00.387Z,79.5
2022-08-28T09:05:00.484Z,78.8
2022-08-28T09:06:00.635Z,79
2022-08-28T09:07:00.788Z,79.1
2022-08-28T09:08:00.940Z,78.9
2022-08-28T09:09:01.109Z,78.8
2022-08-28T09:10:01.256Z,80.2
2022-08-28T09:11:00.408Z,80.8
2022-08-28T09:12:00.553Z,79.8
2022-08-28T09:13:00.705Z,80.3
2022-08-28T09:14:00.870Z,80.5
2022-08-28T09:15:00.993Z,79.9
2022-08-28T09:16:01.157Z,78.5
2022-08-28T09:17:00.300Z,79.3
2022-08-28T09:18:00.456Z,79
2022-08-28T09:19:00.629Z,78.8
2022-08-28T09:20:00.782Z,79
2022-08-28T09:21:00.910Z,79.4
2022-08-28T09:22:01.070Z,79
2022-08-28T09:23:02.143Z,80.3
2022-08-28T09:24:00.375Z,79
2022-08-28T09:25:00.536Z,80.5
2022-08-28T09:26:01.653Z,81.4
2022-08-28T09:27:00.866Z,81.1
2022-08-28T09:28:01.003Z,78.5
2022-08-28T09:29:01.148Z,78.8
2022-08-28T09:30:02.538Z,80
2022-08-28T09:31:00.526Z,79.5
2022-08-28T09:32:00.614Z,79.4
2022-08-28T09:33:00.755Z,79.7
2022-08-28T09:34:01.009Z,79.4
2022-08-28T09:35:01.045Z,79.4
2022-08-28T09:36:01.199Z,79.5
2022-08-28T09:37:00.374Z,79.4
2022-08-28T09:38:00.503Z,78.8
2022-08-28T09:39:00.654Z,79.2
2022-08-28T09:40:00.855Z,80.1
2022-08-28T09:41:00.961Z,79.6
2022-08-28T09:42:01.133Z,78.3
2022-08-28T09:43:00.260Z,79.2
2022-08-28T09:44:00.410Z,80.1
2022-08-28T09:45:00.569Z,79.1
2022-08-28T09:46:00.802Z,79.1
2022-08-28T09:47:00.892Z,78.8
2022-08-28T09:48:01.038Z,78.7
2022-08-28T09:49:01.181Z,77.3
2022-08-28T09:50:00.327Z,77.8
2022-08-28T09:51:00.489Z,78.9
2022-08-28T09:52:00.639Z,77.4
2022-08-28T09:53:00.790Z,76.7
2022-08-28T09:54:00.929Z,77.3
2022-08-28T09:55:01.098Z,77.5
2022-08-28T09:56:01.257Z,77.7
2022-08-28T09:57:00.380Z,78.1
2022-08-28T09:58:00.584Z,78.5
2022-08-28T09:59:00.699Z,78
2022-08-28T10:00:00.848Z,78.2
2022-08-28T10:01:01.004Z,78.8
2022-08-28T10:02:01.222Z,77.4
2022-08-28T10:03:03.294Z,77
2022-08-28T10:04:00.486Z,79
2022-08-28T10:05:00.588Z,77.1
2022-08-28T10:06:00.760Z,76.6
2022-08-28T10:07:00.902Z,77
2022-08-28T10:08:01.055Z,77.6
2022-08-28T10:09:01.227Z,77.6
2022-08-28T10:10:00.350Z,77.9
2022-08-28T10:11:00.509Z,77.8
2022-08-28T10:12:00.647Z,76.9
2022-08-28T10:13:00.792Z,76.2
2022-08-28T10:14:00.963Z,77
2022-08-28T10:15:01.091Z,77.4
2022-08-28T10:16:01.325Z,77.7
2022-08-28T10:17:00.400Z,77.6
2022-08-28T10:18:00.556Z,78.3
2022-08-28T10:19:00.707Z,78.1
2022-08-28T10:20:00.847Z,78.3
2022-08-28T10:21:01.005Z,77.5
2022-08-28T10:22:01.162Z,78.2
2022-08-28T10:23:00.314Z,78.3
2022-08-28T10:24:00.442Z,78.2
2022-08-28T10:25:00.586Z,77.7
2022-08-28T10:26:00.741Z,79.3
2022-08-28T10:27:00.882Z,78
2022-08-28T10:28:01.060Z,78.1
2022-08-28T10:29:01.180Z,78.7
2022-08-28T10:30:05.168Z,78.6
2022-08-28T10:31:00.553Z,78.4
2022-08-28T10:32:00.637Z,78.6
2022-08-28T10:33:00.797Z,77.7
2022-08-28T10:34:00.949Z,77.8
2022-08-28T10:35:01.091Z,77.8
2022-08-28T10:36:01.264Z,78.3
2022-08-28T10:37:00.408Z,78.3
2022-08-28T10:38:00.554Z,78.1
2022-08-28T10:39:00.697Z,77.6
2022-08-28T10:40:00.908Z,77.1
2022-08-28T10:41:01.034Z,77.8
2022-08-28T10:42:01.159Z,78
2022-08-28T10:43:00.292Z,77.1
2022-08-28T10:44:00.436Z,77.7
2022-08-28T10:45:01.272Z,77.2
2022-08-28T10:46:00.810Z,77.6
2022-08-28T10:47:00.927Z,78.4
2022-08-28T10:48:01.054Z,78.6
2022-08-28T10:49:01.212Z,77.8
2022-08-28T10:50:00.344Z,77.8
2022-08-28T10:51:00.494Z,77.5
2022-08-28T10:52:00.670Z,78.3
2022-08-28T10:53:00.818Z,78.4
2022-08-28T10:54:01.061Z,78
2022-08-28T10:55:01.129Z,78.9
2022-08-28T10:56:01.253Z,78.6
2022-08-28T10:57:00.404Z,78.7
2022-08-28T10:58:00.615Z,78
2022-08-28T10:59:00.731Z,77.9
2022-08-28T11:00:00.868Z,78.3
2022-08-28T11:01:01.152Z,78.2
2022-08-28T11:02:01.179Z,78.3
2022-08-28T11:03:00.514Z,78.4
2022-08-28T11:04:00.472Z,77.9
2022-08-28T11:05:00.628Z,77.5
2022-08-28T11:06:00.767Z,77.6
2022-08-28T11:07:00.923Z,77
2022-08-28T11:08:01.110Z,77.1
2022-08-28T11:09:01.218Z,77.4
2022-08-28T11:10:00.381Z,77.7
2022-08-28T11:11:00.529Z,77.8
2022-08-28T11:12:02.295Z,77.8
2022-08-28T11:13:00.847Z,77.9
2022-08-28T11:14:00.999Z,78.1
2022-08-28T11:15:01.131Z,77.4
2022-08-28T11:16:00.287Z,76.5
2022-08-28T11:17:00.502Z,77
2022-08-28T11:18:00.590Z,77.3
2022-08-28T11:19:00.753Z,77.1
2022-08-28T11:20:00.873Z,76.6
2022-08-28T11:21:01.026Z,77
2022-08-28T11:22:01.202Z,76.1
2022-08-28T11:23:00.325Z,76.8
2022-08-28T11:24:00.489Z,76.1
2022-08-28T11:25:04.315Z,76
2022-08-28T11:26:00.793Z,77.5
2022-08-28T11:27:00.937Z,77.6
2022-08-28T11:28:01.092Z,77.4
2022-08-28T11:29:01.257Z,77.3
2022-08-28T11:30:00.384Z,76.8
2022-08-28T11:31:00.618Z,76.1
2022-08-28T11:32:00.696Z,76.4
2022-08-28T11:33:00.841Z,75.4
2022-08-28T11:34:01.031Z,76.2
2022-08-28T11:35:01.142Z,76.2
2022-08-28T11:36:00.298Z,75.9
2022-08-28T11:37:00.447Z,76
2022-08-28T11:38:00.598Z,76
2022-08-28T11:39:00.745Z,74.5
2022-08-28T11:40:00.946Z,73.7
2022-08-28T11:41:01.044Z,74.3
2022-08-28T11:42:01.194Z,74.8
2022-08-28T11:43:00.344Z,75.4
2022-08-28T11:44:00.484Z,73.9
2022-08-28T11:45:00.650Z,72.9
2022-08-28T11:46:01.013Z,73.4
2022-08-28T11:47:00.940Z,73.9
2022-08-28T11:48:01.089Z,72.6
2022-08-28T11:49:01.233Z,73.9
2022-08-28T11:50:00.390Z,74.7
2022-08-28T11:51:00.550Z,75.5
2022-08-28T11:52:00.705Z,75.2
2022-08-28T11:53:00.855Z,74.9
2022-08-28T11:54:00.995Z,74.7
2022-08-28T11:55:01.139Z,74.3
2022-08-28T11:56:00.307Z,75.2
2022-08-28T11:57:00.463Z,74.9
2022-08-28T11:59:00.807Z,74.9
2022-08-28T12:00:00.900Z,75.6
2022-08-28T12:01:01.074Z,75
2022-08-28T12:02:01.225Z,74.9
2022-08-28T12:03:00.349Z,74.5
2022-08-28T12:04:02.811Z,75.4
2022-08-28T12:05:00.664Z,74.1
2022-08-28T12:06:00.821Z,74.2
2022-08-28T12:07:00.971Z,74.1
2022-08-28T12:08:01.148Z,74.5
2022-08-28T12:09:01.273Z,75.1
2022-08-28T12:10:04.802Z,74.4
2022-08-28T12:11:00.568Z,74.8
2022-08-28T12:12:00.734Z,74.8
2022-08-28T12:13:00.855Z,76
2022-08-28T12:14:00.990Z,76.2
2022-08-28T12:15:01.153Z,76.6
2022-08-28T12:16:00.348Z,75.7
2022-08-28T12:17:00.468Z,74.9
2022-08-28T12:18:00.578Z,73.5
2022-08-28T12:19:00.735Z,74.4
2022-08-28T12:20:00.877Z,75
2022-08-28T12:21:01.038Z,75
2022-08-28T12:22:01.211Z,75.8
2022-08-28T12:23:00.352Z,75
2022-08-28T12:24:04.127Z,75.1
2022-08-28T12:25:00.636Z,75.9
2022-08-28T12:26:00.786Z,75.7
2022-08-28T12:27:00.944Z,74.6
2022-08-28T12:28:01.117Z,74.1
2022-08-28T12:29:01.224Z,74
2022-08-28T12:30:00.399Z,74
2022-08-28T12:31:00.533Z,74
2022-08-28T12:32:00.663Z,73.5
2022-08-28T12:33:00.844Z,73.9
2022-08-28T12:34:00.978Z,73.3
2022-08-28T12:35:01.134Z,73.3
2022-08-28T12:36:00.281Z,73.8
2022-08-28T12:37:00.421Z,72.4
2022-08-28T12:38:00.579Z,73
2022-08-28T12:39:00.758Z,72.9
2022-08-28T12:40:01.023Z,73.5
2022-08-28T12:41:01.046Z,73.2
2022-08-28T12:42:01.193Z,73
2022-08-28T12:43:00.349Z,72.3
2022-08-28T12:44:00.505Z,71.7
2022-08-28T12:45:00.653Z,72
2022-08-28T12:46:00.819Z,73
2022-08-28T12:47:00.949Z,72.5
2022-08-28T12:48:01.125Z,72.7
2022-08-28T12:49:01.253Z,73.3
2022-08-28T12:50:00.412Z,73.1
2022-08-28T12:51:00.564Z,73.2
2022-08-28T12:52:00.719Z,72.6
2022-08-28T12:53:00.880Z,71.9
2022-08-28T12:54:01.010Z,73
2022-08-28T12:55:01.161Z,72.2
2022-08-28T12:56:00.393Z,72.5
2022-08-28T12:57:00.474Z,72.9
2022-08-28T12:58:00.645Z,72.5
2022-08-28T12:59:00.777Z,73.8
2022-08-28T13:00:00.936Z,75.1
2022-08-28T13:01:01.191Z,75.5
2022-08-28T13:02:01.386Z,75.9
2022-08-28T13:03:00.413Z,76.1
2022-08-28T13:04:00.565Z,75.2
2022-08-28T13:05:00.715Z,74.7
2022-08-28T13:06:00.850Z,74.1
2022-08-28T13:07:00.996Z,74.7
2022-08-28T13:08:01.145Z,74.4
2022-08-28T13:09:00.314Z,74.7
2022-08-28T13:10:00.452Z,74.6
2022-08-28T13:11:00.622Z,75
2022-08-28T13:12:00.753Z,75.1
2022-08-28T13:13:15.485Z,75.3
2022-08-28T13:14:01.087Z,75.1
2022-08-28T13:15:01.222Z,74.5
2022-08-28T13:16:00.370Z,73.3
2022-08-28T13:17:00.603Z,73.1
2022-08-28T13:18:00.685Z,73.8
2022-08-28T13:19:00.836Z,73.7
2022-08-28T13:20:00.986Z,73.7
2022-08-28T13:21:01.152Z,73.3
2022-08-28T13:22:00.328Z,74
2022-08-28T13:23:00.431Z,74.4
2022-08-28T13:24:00.585Z,74
2022-08-28T13:25:00.737Z,73.6
2022-08-28T13:26:00.901Z,74.4